Time;durP1;ratioP1;P1;durP2;ratioP2;P2;SDS_P1;SDS_P2;PMS_P1;PMS_P2;Temp;Humidity;BMP_temperature;BMP_pressure;BME280_temperature;BME280_humidity;BME280_pressure;Samples;Min_cycle;Max_cycle;Signal;HPM_P1;HPM_P2
2022/07/04 00:01:01;;;;;;;7.78;5.00;;;;;;;19.52;84.44;95253.75;5049438;28;20033;-79
2022/07/04 00:03:28;;;;;;;9.52;5.75;;;;;;;19.57;84.63;95266.94;5046778;28;20036;-79
2022/07/04 00:05:56;;;;;;;10.30;5.25;;;;;;;19.57;84.08;95256.34;5062789;28;20116;-79
2022/07/04 00:08:25;;;;;;;6.75;5.07;;;;;;;19.41;84.02;95241.66;5049212;28;20616;-79
2022/07/04 00:10:52;;;;;;;10.10;5.30;;;;;;;19.50;83.88;95258.53;5043397;28;20044;-79
2022/07/04 00:13:19;;;;;;;8.98;5.93;;;;;;;19.47;83.29;95257.22;5020140;28;20044;-80
2022/07/04 00:15:46;;;;;;;7.30;6.13;;;;;;;19.50;83.57;95255.88;5066182;28;20044;-79
2022/07/04 00:18:13;;;;;;;8.63;5.18;;;;;;;19.51;83.36;95257.44;5053511;28;20047;-79
2022/07/04 00:20:40;;;;;;;13.60;5.28;;;;;;;19.33;83.84;95234.34;5058486;28;20040;-79
2022/07/04 00:23:08;;;;;;;6.03;4.40;;;;;;;19.26;84.72;95240.72;5065733;28;20047;-78
2022/07/04 00:25:36;;;;;;;6.35;5.32;;;;;;;19.34;85.48;95251.75;5063375;28;20131;-78
2022/07/04 00:28:04;;;;;;;6.43;5.53;;;;;;;19.32;85.25;95251.25;5055209;28;20062;-78
2022/07/04 00:30:31;;;;;;;6.30;5.50;;;;;;;19.36;86.04;95244.38;5060154;28;20070;-77
2022/07/04 00:32:58;;;;;;;7.63;5.57;;;;;;;19.25;86.90;95233.88;5045383;28;20041;-79
2022/07/04 00:35:25;;;;;;;6.68;5.20;;;;;;;19.24;86.81;95237.56;5063790;28;20513;-78
2022/07/04 00:37:52;;;;;;;8.00;4.43;;;;;;;19.26;86.29;95230.16;5069018;28;20051;-79
2022/07/04 00:40:20;;;;;;;7.03;5.28;;;;;;;19.27;85.22;95226.47;5056223;28;20072;-79
2022/07/04 00:42:47;;;;;;;7.68;5.32;;;;;;;19.13;84.90;95225.53;5060747;28;20076;-78
2022/07/04 00:45:14;;;;;;;9.65;4.78;;;;;;;19.08;84.89;95212.34;5048155;28;20515;-80
2022/07/04 00:47:41;;;;;;;7.78;5.65;;;;;;;19.16;85.58;95230.25;5076315;28;20051;-79
2022/07/04 00:50:08;;;;;;;12.75;5.22;;;;;;;19.12;84.84;95229.22;5086261;28;20046;-78
2022/07/04 00:52:37;;;;;;;11.70;5.78;;;;;;;19.10;84.79;95226.06;5057323;28;20064;-79
2022/07/04 00:55:04;;;;;;;6.07;4.70;;;;;;;19.04;84.33;95221.88;5053186;28;20468;-79
2022/07/04 00:57:31;;;;;;;5.43;4.40;;;;;;;19.01;84.25;95227.72;5047778;28;20036;-79
2022/07/04 00:59:58;;;;;;;8.18;4.80;;;;;;;18.90;84.45;95211.94;5054638;28;20040;-79
2022/07/04 01:02:25;;;;;;;7.15;5.38;;;;;;;18.98;83.81;95213.22;5065143;28;21041;-79
2022/07/04 01:04:54;;;;;;;6.05;4.88;;;;;;;19.04;84.44;95224.53;5052161;28;20045;-79
2022/07/04 01:07:21;;;;;;;6.32;4.40;;;;;;;19.01;84.17;95222.44;5064822;28;20040;-78
2022/07/04 01:09:50;;;;;;;23.08;5.28;;;;;;;19.00;84.47;95226.16;5049532;28;20521;-78
2022/07/04 01:12:26;;;;;;;7.63;4.85;;;;;;;18.95;85.16;95221.69;5036628;28;20036;-78
2022/07/04 01:14:53;;;;;;;10.93;4.47;;;;;;;18.91;84.74;95208.25;5037451;28;20444;-78
2022/07/04 01:17:20;;;;;;;8.77;4.10;;;;;;;18.94;84.28;95221.94;5053142;28;20032;-78
2022/07/04 01:19:47;;;;;;;6.55;4.57;;;;;;;19.02;84.31;95218.75;5062579;28;20713;-78
2022/07/04 01:22:15;;;;;;;8.00;4.65;;;;;;;19.01;84.15;95230.34;5062851;28;20048;-78
2022/07/04 01:24:42;;;;;;;6.50;4.93;;;;;;;18.96;84.92;95219.81;5061165;28;20047;-77
2022/07/04 01:27:10;;;;;;;12.25;4.80;;;;;;;18.98;85.26;95228.25;5062207;28;20144;-78
2022/07/04 01:29:37;;;;;;;7.95;5.22;;;;;;;18.97;85.88;95221.41;5062600;28;20051;-79
2022/07/04 01:32:08;;;;;;;7.65;5.20;;;;;;;18.90;86.29;95232.25;5062553;28;20119;-78
2022/07/04 01:34:36;;;;;;;9.70;4.72;;;;;;;18.86;86.59;95226.75;5051227;28;20120;-78
2022/07/04 01:37:10;;;;;;;8.63;5.80;;;;;;;18.87;87.21;95228.34;5049334;28;20075;-78
2022/07/04 01:39:37;;;;;;;9.13;5.85;;;;;;;18.76;88.06;95224.13;5054015;28;20495;-78
2022/07/04 01:42:04;;;;;;;5.85;5.25;;;;;;;18.59;87.81;95210.53;5052714;28;20045;-78
2022/07/04 01:44:32;;;;;;;7.25;5.40;;;;;;;18.51;88.42;95193.41;5061467;28;20044;-78
2022/07/04 01:46:59;;;;;;;6.85;4.70;;;;;;;18.47;90.08;95214.25;5052358;28;20159;-78
2022/07/04 01:49:27;;;;;;;8.60;5.50;;;;;;;18.41;89.94;95214.56;5061937;28;20044;-78
2022/07/04 01:51:54;;;;;;;9.40;5.20;;;;;;;18.37;89.67;95214.31;5051824;28;20059;-79
2022/07/04 01:54:21;;;;;;;5.50;4.85;;;;;;;18.36;89.80;95228.53;5060150;28;20035;-78
2022/07/04 01:56:48;;;;;;;6.25;5.10;;;;;;;18.19;89.94;95212.28;5033418;28;20453;-78
2022/07/04 01:59:15;;;;;;;7.90;5.28;;;;;;;18.17;89.90;95214.38;5028221;28;20437;-78
2022/07/04 02:01:42;;;;;;;6.05;5.13;;;;;;;18.17;90.34;95214.38;5050587;28;20052;-78
2022/07/04 02:04:09;;;;;;;8.35;4.82;;;;;;;18.14;90.35;95213.84;5061501;28;20302;-78
2022/07/04 02:06:36;;;;;;;7.03;4.95;;;;;;;18.14;90.29;95231.53;5035054;28;20043;-78
2022/07/04 02:09:15;;;;;;;6.70;5.10;;;;;;;18.11;90.20;95240.78;5037727;28;20060;-78
2022/07/04 02:14:33;;;;;;;6.30;4.57;;;;;;;18.00;92.49;95231.28;5084379;28;20048;-77
2022/07/04 02:17:00;;;;;;;7.25;4.93;;;;;;;17.93;92.43;95236.06;5055135;28;20055;-78
2022/07/04 02:19:29;;;;;;;10.82;5.38;;;;;;;17.92;92.63;95237.13;5056947;28;20049;-78
2022/07/04 02:21:58;;;;;;;10.90;4.97;;;;;;;17.86;92.54;95235.53;5054009;28;20115;-78
2022/07/04 02:24:26;;;;;;;9.80;5.40;;;;;;;17.75;92.56;95218.94;5057143;28;20521;-78
2022/07/04 02:26:54;;;;;;;8.38;5.88;;;;;;;17.76;92.88;95231.84;5064413;28;20066;-78
2022/07/04 02:29:21;;;;;;;6.07;4.88;;;;;;;17.52;92.72;95201.84;5062089;28;20140;-78
2022/07/04 02:31:48;;;;;;;11.45;5.72;;;;;;;17.62;93.99;95230.81;5060700;28;20041;-78
2022/07/04 02:34:15;;;;;;;9.23;5.93;;;;;;;17.52;94.23;95221.09;5066674;28;20048;-78
2022/07/04 02:36:43;;;;;;;6.75;5.68;;;;;;;17.62;94.05;95235.28;5078746;28;20048;-78
2022/07/04 02:39:10;;;;;;;11.57;5.78;;;;;;;17.57;94.51;95222.91;5042990;28;20055;-78
2022/07/04 02:41:37;;;;;;;15.55;6.90;;;;;;;17.44;93.87;95207.66;5069685;28;20040;-78
2022/07/04 02:44:04;;;;;;;13.98;7.45;;;;;;;17.44;94.11;95215.56;5058401;28;20041;-78
2022/07/04 02:46:34;;;;;;;13.32;8.15;;;;;;;17.50;94.59;95238.19;5055864;28;20033;-78
2022/07/04 02:49:02;;;;;;;12.93;6.95;;;;;;;17.48;95.48;95235.03;5050735;28;20068;-78
2022/07/04 02:51:29;;;;;;;14.45;7.15;;;;;;;17.32;95.78;95221.88;5067114;28;20102;-78
2022/07/04 02:53:57;;;;;;;12.75;7.07;;;;;;;17.46;95.49;95231.88;5057104;28;20110;-77
2022/07/04 02:56:24;;;;;;;9.82;6.45;;;;;;;17.34;95.28;95214.50;5056376;28;20047;-78
2022/07/04 02:58:51;;;;;;;12.15;5.90;;;;;;;17.34;95.35;95224.22;5054573;28;20041;-78
2022/07/04 03:01:19;;;;;;;8.05;5.88;;;;;;;17.46;94.99;95237.16;5050205;28;20037;-78
2022/07/04 03:03:47;;;;;;;10.02;4.97;;;;;;;17.44;94.33;95239.25;5063538;28;20631;-77
2022/07/04 03:06:14;;;;;;;16.83;5.82;;;;;;;17.42;94.36;95247.41;5056549;28;20543;-78
2022/07/04 03:08:42;;;;;;;8.70;5.75;;;;;;;17.42;94.15;95246.63;5053195;28;20139;-77
2022/07/04 03:11:09;;;;;;;7.28;5.53;;;;;;;17.36;94.94;95254.53;5063772;28;20044;-78
2022/07/04 03:13:36;;;;;;;18.33;7.32;;;;;;;17.32;94.63;95248.22;5040969;28;20051;-78
2022/07/04 03:16:05;;;;;;;8.95;4.82;;;;;;;17.26;94.62;95232.69;5051216;28;20055;-78
2022/07/04 03:18:32;;;;;;;10.05;4.70;;;;;;;17.22;94.50;95236.88;5038697;28;20445;-78
2022/07/04 03:21:00;;;;;;;6.25;5.07;;;;;;;17.31;93.89;95245.84;5035882;28;20066;-78
2022/07/04 03:23:27;;;;;;;6.13;4.47;;;;;;;17.13;93.59;95231.34;5037648;28;20411;-78
2022/07/04 03:25:54;;;;;;;7.45;4.47;;;;;;;17.23;93.69;95233.97;5038557;28;20124;-78
2022/07/04 03:28:21;;;;;;;6.45;4.85;;;;;;;17.38;94.20;95262.94;5063155;28;20033;-80
2022/07/04 03:30:48;;;;;;;11.20;4.88;;;;;;;17.32;94.10;95253.47;5064642;28;20063;-77
2022/07/04 03:33:15;;;;;;;5.80;4.43;;;;;;;17.37;94.63;95250.81;5054978;28;20119;-78
2022/07/04 03:35:42;;;;;;;6.07;4.75;;;;;;;17.32;94.43;95226.34;5044963;28;20469;-78
2022/07/04 03:38:09;;;;;;;7.20;4.38;;;;;;;17.46;94.17;95239.78;5049595;28;20041;-79
2022/07/04 03:40:38;;;;;;;5.75;4.53;;;;;;;17.56;93.79;95255.59;5047976;28;20048;-78
2022/07/04 03:43:08;;;;;;;12.70;6.13;;;;;;;17.58;94.28;95256.09;5055720;28;20040;-78
2022/07/04 03:45:35;;;;;;;7.07;4.88;;;;;;;17.66;94.22;95245.03;5063331;28;20399;-78
2022/07/04 03:48:03;;;;;;;8.63;4.50;;;;;;;17.74;94.29;95249.75;5050176;28;20032;-78
2022/07/04 03:50:30;;;;;;;6.30;5.35;;;;;;;17.73;94.64;95242.91;5046017;28;20064;-78
2022/07/04 03:52:57;;;;;;;7.78;5.55;;;;;;;17.86;94.81;95251.34;5064346;28;20127;-79
2022/07/04 03:55:24;;;;;;;12.13;6.82;;;;;;;17.88;93.90;95250.03;5054584;28;20497;-78
2022/07/04 03:57:51;;;;;;;8.38;5.32;;;;;;;17.96;92.90;95256.59;5064185;28;20036;-79
2022/07/04 04:00:18;;;;;;;8.95;5.35;;;;;;;17.95;91.98;95249.75;5052397;28;20433;-79
2022/07/04 04:02:45;;;;;;;11.13;5.47;;;;;;;18.08;91.02;95258.97;5063625;28;20059;-79
2022/07/04 04:05:33;;;;;;;6.65;4.95;;;;;;;18.07;92.43;95247.63;5063819;28;20041;-78
2022/07/04 04:08:01;;;;;;;11.85;5.63;;;;;;;18.13;92.42;95251.84;5052296;28;20063;-78
2022/07/04 04:10:32;;;;;;;9.90;4.90;;;;;;;18.23;92.05;95261.56;5052778;28;20442;-78
2022/07/04 04:12:59;;;;;;;6.70;5.15;;;;;;;18.19;91.30;95243.91;5062914;28;20521;-78
2022/07/04 04:15:26;;;;;;;9.25;4.18;;;;;;;18.31;90.88;95247.81;5051061;28;20048;-78
2022/07/04 04:17:54;;;;;;;7.25;5.22;;;;;;;18.47;91.03;95261.72;5049312;28;20033;-79
2022/07/04 04:20:20;;;;;;;5.85;4.97;;;;;;;18.51;89.96;95236.41;5066466;28;20123;-79
2022/07/04 04:22:47;;;;;;;10.30;5.50;;;;;;;18.58;89.27;95235.31;5035887;28;20522;-79
2022/07/04 04:25:16;;;;;;;7.32;4.18;;;;;;;18.69;88.65;95231.56;5051363;28;20134;-79
2022/07/04 04:27:43;;;;;;;5.40;4.40;;;;;;;18.89;87.60;95247.31;5057329;28;20044;-79
2022/07/04 04:30:10;;;;;;;5.40;3.67;;;;;;;19.09;87.60;95253.53;5047422;28;20042;-80
2022/07/04 04:32:39;;;;;;;7.57;4.13;;;;;;;19.18;87.16;95259.81;5050081;28;20052;-79
2022/07/04 04:35:06;;;;;;;6.85;3.92;;;;;;;19.31;86.15;95262.91;5038756;28;20533;-78
2022/07/04 04:37:33;;;;;;;7.78;3.95;;;;;;;19.49;84.96;95264.88;5062843;28;20127;-79
2022/07/04 04:40:01;;;;;;;5.10;4.18;;;;;;;19.63;83.83;95265.81;5055747;28;20056;-79
2022/07/04 04:42:28;;;;;;;11.68;3.97;;;;;;;19.66;82.44;95246.75;5062519;28;20052;-79
2022/07/04 04:44:55;;;;;;;7.38;3.38;;;;;;;19.87;81.74;95249.22;5049428;28;20040;-78
2022/07/04 04:47:22;;;;;;;6.43;3.85;;;;;;;20.02;80.20;95251.75;5050449;28;20045;-79
2022/07/04 04:49:49;;;;;;;5.22;3.53;;;;;;;20.19;78.93;95259.22;5050913;28;20053;-79
2022/07/04 04:52:16;;;;;;;6.38;3.28;;;;;;;20.30;77.28;95251.97;5050022;28;20127;-79
2022/07/04 04:54:43;;;;;;;4.78;3.40;;;;;;;20.52;75.81;95253.31;5065731;28;20052;-79
2022/07/04 04:57:11;;;;;;;5.65;3.72;;;;;;;20.67;74.67;95250.50;5049225;28;20045;-79
2022/07/04 04:59:38;;;;;;;9.05;3.80;;;;;;;20.76;74.05;95232.09;5052760;28;20488;-79
2022/07/04 05:02:05;;;;;;;10.50;3.85;;;;;;;20.73;75.18;95217.59;5048941;28;20044;-78
2022/07/04 05:04:32;;;;;;;6.55;4.25;;;;;;;21.08;73.66;95262.38;5063061;28;20094;-79
2022/07/04 05:06:59;;;;;;;12.30;4.32;;;;;;;21.09;73.78;95256.81;5065412;28;20037;-78
2022/07/04 05:09:26;;;;;;;5.68;4.20;;;;;;;21.13;71.78;95265.75;5050959;28;20048;-79
2022/07/04 05:11:53;;;;;;;6.47;3.83;;;;;;;21.26;70.99;95260.81;5053253;28;20044;-79
2022/07/04 05:14:20;;;;;;;11.48;4.47;;;;;;;21.20;70.89;95255.59;5039002;28;20440;-79
2022/07/04 05:16:47;;;;;;;5.97;4.38;;;;;;;21.36;74.47;95261.44;5063338;28;20521;-79
2022/07/04 05:19:14;;;;;;;5.82;4.88;;;;;;;21.47;77.67;95264.75;5044977;28;20036;-79
2022/07/04 05:21:42;;;;;;;6.68;4.78;;;;;;;21.50;76.91;95272.13;5063107;28;20544;-80
2022/07/04 05:24:11;;;;;;;13.85;5.68;;;;;;;21.36;77.10;95244.75;5062869;28;20139;-78
2022/07/04 05:26:38;;;;;;;6.38;4.03;;;;;;;21.34;77.26;95252.22;5066198;28;20051;-78
2022/07/04 05:29:05;;;;;;;4.88;4.35;;;;;;;21.46;77.86;95257.09;5039025;28;20062;-79
2022/07/04 05:31:32;;;;;;;10.55;4.80;;;;;;;21.60;77.89;95270.38;5072920;28;20131;-78
2022/07/04 05:33:59;;;;;;;6.82;4.38;;;;;;;21.53;73.71;95271.53;5066554;28;20545;-78
2022/07/04 05:36:26;;;;;;;5.90;4.32;;;;;;;21.25;72.01;95259.22;5063011;28;20064;-78
2022/07/04 05:38:57;;;;;;;5.28;4.78;;;;;;;21.53;75.15;95276.81;5060670;28;20397;-79
2022/07/04 05:41:25;;;;;;;8.13;4.50;;;;;;;21.68;75.55;95277.66;5059532;28;20045;-78
2022/07/04 05:43:54;;;;;;;6.00;4.75;;;;;;;21.65;74.41;95263.13;5047770;28;20051;-78
2022/07/04 05:46:25;;;;;;;6.75;3.88;;;;;;;21.89;72.05;95278.91;5029169;28;20032;-78
2022/07/04 05:48:52;;;;;;;7.43;4.00;;;;;;;21.89;71.85;95262.97;5050082;28;20037;-78
2022/07/04 05:51:19;;;;;;;5.38;3.85;;;;;;;22.08;71.80;95275.41;5049293;28;20123;-78
2022/07/04 05:53:49;;;;;;;5.60;4.15;;;;;;;22.17;71.32;95263.03;5030418;28;20552;-78
2022/07/04 05:56:18;;;;;;;11.98;6.22;;;;;;;22.33;68.84;95274.97;5047758;28;20451;-78
2022/07/04 05:58:44;;;;;;;5.57;4.38;;;;;;;22.44;68.28;95270.25;5049509;28;20062;-77
2022/07/04 06:01:13;;;;;;;6.90;4.93;;;;;;;22.44;67.66;95274.78;5051642;28;20048;-78
2022/07/04 06:03:40;;;;;;;5.80;4.40;;;;;;;22.67;67.46;95272.97;5045859;28;20041;-78
2022/07/04 06:06:07;;;;;;;7.68;4.03;;;;;;;22.80;62.58;95263.44;5030623;28;20171;-78
2022/07/04 06:08:36;;;;;;;5.38;2.83;;;;;;;22.94;56.81;95253.56;5049608;28;20103;-78
2022/07/04 06:11:04;;;;;;;5.03;3.00;;;;;;;23.36;56.49;95278.16;5059117;28;20036;-78
2022/07/04 06:13:31;;;;;;;3.70;3.22;;;;;;;23.53;56.31;95274.06;5048315;28;20051;-78
2022/07/04 06:15:58;;;;;;;12.23;3.42;;;;;;;23.70;56.59;95257.41;5052127;28;20045;-78
2022/07/04 06:18:27;;;;;;;3.33;2.88;;;;;;;23.99;52.52;95271.09;5033733;28;20045;-78
2022/07/04 06:20:56;;;;;;;4.55;2.75;;;;;;;24.13;53.28;95275.53;5059881;28;20066;-79
2022/07/04 06:23:24;;;;;;;3.83;2.90;;;;;;;24.20;52.84;95260.69;5050057;28;20048;-79
2022/07/04 06:25:51;;;;;;;6.00;3.13;;;;;;;24.28;50.58;95255.72;5030131;28;20568;-80
2022/07/04 06:28:17;;;;;;;4.85;3.00;;;;;;;24.20;51.73;95259.91;5051021;28;20033;-78
2022/07/04 06:31:05;;;;;;;5.38;3.50;;;;;;;24.47;52.51;95264.25;5050824;28;20518;-79
2022/07/04 06:33:31;;;;;;;3.75;2.90;;;;;;;24.53;52.88;95246.28;5059986;28;20048;-79
2022/07/04 06:35:59;;;;;;;3.25;2.53;;;;;;;24.83;51.50;95265.94;5051445;28;20131;-79
2022/07/04 06:38:30;;;;;;;3.08;2.78;;;;;;;25.00;48.41;95265.94;5047115;28;20044;-79
2022/07/04 06:40:58;;;;;;;5.13;3.03;;;;;;;25.11;50.25;95260.31;5015598;28;20127;-79
2022/07/04 06:43:26;;;;;;;3.70;2.67;;;;;;;25.22;46.58;95266.88;5051031;28;20136;-79
2022/07/04 06:45:53;;;;;;;3.45;3.15;;;;;;;25.50;45.22;95264.72;5050847;28;20282;-79
2022/07/04 06:48:21;;;;;;;4.65;3.35;;;;;;;25.74;46.59;95269.53;5061873;28;20445;-79
2022/07/04 06:50:48;;;;;;;5.13;3.20;;;;;;;25.98;44.57;95270.16;5049044;28;20143;-79
2022/07/04 06:53:15;;;;;;;5.60;2.70;;;;;;;26.15;44.32;95269.31;5061973;28;20152;-79
2022/07/04 06:55:42;;;;;;;3.83;2.95;;;;;;;26.15;43.37;95274.66;5053131;28;20951;-78
2022/07/04 06:58:10;;;;;;;5.22;3.28;;;;;;;26.29;44.20;95264.56;5050744;28;20513;-77
2022/07/04 07:00:38;;;;;;;6.25;3.10;;;;;;;26.36;41.39;95270.16;5047708;28;20834;-79
2022/07/04 07:03:06;;;;;;;4.07;2.80;;;;;;;26.36;42.16;95264.81;5065222;28;20520;-79
2022/07/04 07:05:36;;;;;;;6.35;2.95;;;;;;;26.40;43.33;95259.63;5053538;28;20362;-79
2022/07/04 07:08:23;;;;;;;4.90;3.10;;;;;;;26.59;42.85;95261.88;5056209;28;20426;-79
2022/07/04 07:10:50;;;;;;;8.40;3.10;;;;;;;26.71;43.06;95259.34;5056976;28;20063;-78
2022/07/04 07:13:17;;;;;;;6.25;3.38;;;;;;;26.85;43.08;95262.56;5063971;28;20048;-78
2022/07/04 07:15:45;;;;;;;5.63;2.60;;;;;;;27.00;44.57;95265.75;5056690;28;20048;-78
2022/07/04 07:18:12;;;;;;;6.25;3.97;;;;;;;27.02;42.92;95252.84;5051202;28;20036;-79
2022/07/04 07:20:39;;;;;;;4.03;2.90;;;;;;;27.24;43.65;95257.88;5054952;28;20037;-78
2022/07/04 07:23:07;;;;;;;7.57;4.00;;;;;;;27.35;44.34;95246.78;5053344;28;20032;-79
2022/07/04 07:25:34;;;;;;;4.60;3.00;;;;;;;27.46;42.49;95250.66;5053757;28;20045;-79
2022/07/04 07:28:01;;;;;;;4.47;3.10;;;;;;;27.61;41.33;95252.69;5049300;28;20528;-79
2022/07/04 07:30:28;;;;;;;3.92;3.53;;;;;;;27.54;42.06;95247.09;5035639;28;20040;-79
2022/07/04 07:32:55;;;;;;;7.78;3.20;;;;;;;27.63;43.78;95223.72;5040403;28;20113;-79
2022/07/04 07:35:22;;;;;;;3.95;2.85;;;;;;;27.83;41.77;95234.69;5054229;28;20548;-79
2022/07/04 07:37:49;;;;;;;4.40;3.50;;;;;;;28.06;41.71;95240.47;5050215;28;20048;-78
2022/07/04 07:40:16;;;;;;;4.22;3.03;;;;;;;28.22;42.45;95238.69;5064182;28;20036;-79
2022/07/04 07:42:43;;;;;;;4.22;2.80;;;;;;;28.26;41.20;95233.44;5064269;28;20212;-79
2022/07/04 07:45:10;;;;;;;9.07;3.60;;;;;;;28.41;42.15;95251.53;5064940;28;20044;-79
2022/07/04 07:47:39;;;;;;;3.40;3.10;;;;;;;28.42;40.28;95252.31;5040262;28;20106;-79
2022/07/04 07:50:09;;;;;;;3.63;2.80;;;;;;;28.32;39.61;95236.69;5043116;28;20040;-78
2022/07/04 07:52:36;;;;;;;3.85;3.33;;;;;;;28.31;39.94;95241.25;5053748;28;20055;-79
2022/07/04 07:55:04;;;;;;;4.95;3.92;;;;;;;28.40;41.65;95239.25;5040716;28;20525;-79
2022/07/04 07:57:31;;;;;;;5.30;3.40;;;;;;;28.60;40.86;95250.22;5056815;28;20044;-79
2022/07/04 07:59:58;;;;;;;10.38;3.78;;;;;;;28.74;41.14;95245.28;5052127;28;20041;-78
2022/07/04 08:05:11;;;;;;;5.78;3.58;;;;;;;28.85;40.75;95242.91;5063228;28;20041;-79
2022/07/04 08:07:38;;;;;;;4.47;3.50;;;;;;;29.08;40.77;95245.91;5064534;28;20127;-79
2022/07/04 08:10:06;;;;;;;5.55;4.10;;;;;;;29.10;39.28;95238.28;5064318;28;20446;-79
2022/07/04 08:12:34;;;;;;;5.38;3.50;;;;;;;29.30;40.80;95230.44;5052239;28;20140;-79
2022/07/04 08:15:03;;;;;;;6.65;3.80;;;;;;;29.58;38.54;95245.72;5064545;28;20044;-78
2022/07/04 08:17:34;;;;;;;4.53;3.95;;;;;;;29.68;39.09;95234.50;5064216;28;20048;-78
2022/07/04 08:20:03;;;;;;;8.05;4.55;;;;;;;29.97;40.72;95237.97;5051045;28;20506;-79
2022/07/04 08:22:31;;;;;;;4.53;3.55;;;;;;;30.06;37.17;95243.94;5063764;28;20110;-79
2022/07/04 08:24:58;;;;;;;5.20;3.88;;;;;;;30.18;37.77;95245.75;5053208;28;20560;-78
2022/07/04 08:27:25;;;;;;;7.10;4.05;;;;;;;30.18;39.45;95238.47;5054863;28;20044;-77
2022/07/04 08:29:59;;;;;;;;;;;;;;;30.29;36.52;95236.81;5053995;28;20633;-78
2022/07/04 08:32:26;;;;;;;9.20;4.00;;;;;;;30.28;37.22;95229.88;5064044;28;19973;-78
2022/07/04 08:34:54;;;;;;;4.80;3.97;;;;;;;30.49;38.39;95235.00;5048482;28;20131;-78
2022/07/04 08:37:23;;;;;;;5.88;3.83;;;;;;;30.18;37.12;95224.25;5064553;28;20492;-79
2022/07/04 08:39:50;;;;;;;10.73;3.58;;;;;;;30.15;37.87;95217.69;5063215;28;20127;-78
2022/07/04 08:42:20;;;;;;;9.95;3.88;;;;;;;30.24;37.75;95207.53;5061051;28;20036;-79
2022/07/04 08:44:52;;;;;;;4.82;4.00;;;;;;;30.31;37.93;95231.88;5032060;28;20048;-79
2022/07/04 08:47:22;;;;;;;6.00;4.32;;;;;;;29.97;38.30;95219.16;5047906;28;20067;-78
2022/07/04 08:49:58;;;;;;;10.27;5.03;;;;;;;30.31;38.34;95234.56;5034581;28;20087;-79
2022/07/04 08:52:36;;;;;;;6.15;4.30;;;;;;;30.52;38.62;95230.84;5049441;28;20186;-79
2022/07/04 09:00:38;;;;;;;8.50;4.28;;;;;;;31.47;37.19;95220.91;5049491;28;20082;-78
2022/07/04 09:03:07;;;;;;;4.95;4.00;;;;;;;31.65;37.13;95211.28;5050469;28;20138;-78
2022/07/04 09:05:36;;;;;;;9.23;4.13;;;;;;;31.83;36.63;95223.13;5041987;28;20047;-78
2022/07/04 09:08:03;;;;;;;10.77;4.97;;;;;;;31.58;35.46;95216.53;5043898;28;20093;-78
2022/07/04 09:10:31;;;;;;;4.35;3.95;;;;;;;31.88;36.89;95216.69;5048278;28;20062;-78
2022/07/04 09:13:02;;;;;;;4.85;3.90;;;;;;;31.96;36.12;95209.50;5058634;28;20413;-78
2022/07/04 09:15:41;;;;;;;15.30;4.20;;;;;;;32.23;35.87;95217.66;5052128;28;20045;-77
2022/07/04 09:18:34;;;;;;;6.88;4.38;;;;;;;32.36;35.47;95221.72;5066743;28;20099;-78
2022/07/04 09:21:05;;;;;;;7.13;4.50;;;;;;;32.60;36.22;95206.31;5055587;28;20036;-77
2022/07/04 09:23:35;;;;;;;10.32;4.65;;;;;;;32.78;34.93;95226.22;5053608;28;20032;-79
2022/07/04 09:26:13;;;;;;;10.80;4.22;;;;;;;33.02;32.61;95224.19;5055252;28;20544;-78
2022/07/04 09:28:45;;;;;;;6.28;4.13;;;;;;;33.20;33.20;95219.81;5066036;28;20044;-79
2022/07/04 09:31:23;;;;;;;9.82;4.65;;;;;;;33.23;34.59;95219.09;5050818;28;20498;-77
2022/07/04 09:33:55;;;;;;;11.23;4.57;;;;;;;33.09;33.16;95224.28;5031110;28;20076;-77
2022/07/04 09:36:27;;;;;;;6.00;3.90;;;;;;;32.93;33.00;95211.75;5030870;28;20600;-77
2022/07/04 09:39:05;;;;;;;4.32;3.92;;;;;;;33.01;32.52;95219.94;5061573;28;20496;-78
2022/07/04 09:41:49;;;;;;;9.82;4.60;;;;;;;32.52;33.81;95210.78;5044556;28;20511;-76
2022/07/04 09:44:16;;;;;;;5.22;4.75;;;;;;;32.83;35.63;95196.22;5035311;28;20044;-78
2022/07/04 09:46:43;;;;;;;7.22;4.88;;;;;;;32.98;35.97;95191.03;5051757;28;20059;-77
2022/07/04 09:49:11;;;;;;;6.93;5.03;;;;;;;33.36;33.63;95202.66;5051670;28;20040;-77
2022/07/04 09:51:47;;;;;;;7.45;4.72;;;;;;;33.55;35.82;95202.50;5063218;28;20273;-77
2022/07/04 09:54:21;;;;;;;5.45;4.82;;;;;;;33.71;33.25;95194.97;5061217;28;20048;-77
2022/07/04 09:56:51;;;;;;;6.75;4.60;;;;;;;33.86;33.88;95200.50;5054521;28;20048;-78
2022/07/04 09:59:19;;;;;;;9.63;5.18;;;;;;;33.91;33.18;95197.47;5051078;28;21813;-77
2022/07/04 10:01:46;;;;;;;9.63;5.05;;;;;;;33.71;32.44;95188.78;5062080;28;20445;-77
2022/07/04 10:04:14;;;;;;;7.13;5.13;;;;;;;33.94;31.89;95195.94;5063057;28;20058;-77
2022/07/04 10:06:43;;;;;;;4.70;4.05;;;;;;;34.17;32.99;95195.72;5035462;28;20043;-76
2022/07/04 10:09:15;;;;;;;8.68;5.20;;;;;;;34.51;33.54;95195.63;5062606;28;20029;-77
2022/07/04 10:11:44;;;;;;;5.60;5.10;;;;;;;34.71;32.33;95199.63;5050035;28;20268;-77
2022/07/04 10:14:15;;;;;;;5.60;4.97;;;;;;;34.95;31.38;95205.53;5063045;28;20067;-77
2022/07/04 10:16:43;;;;;;;5.95;5.35;;;;;;;34.77;32.52;95198.13;5049791;28;20532;-77
2022/07/04 12:55:46;;;;;;;9.80;8.45;;;;;;;31.23;57.92;95082.88;5041059;26;20453;-79
2022/07/04 12:58:13;;;;;;;11.20;8.60;;;;;;;31.19;55.17;95080.13;5037368;28;20045;-79
2022/07/04 13:00:41;;;;;;;9.68;8.60;;;;;;;31.55;55.27;95082.69;5024215;28;20304;-70
2022/07/04 13:03:08;;;;;;;15.43;8.85;;;;;;;32.34;53.01;95078.47;5057550;28;20518;-72
2022/07/04 13:05:37;;;;;;;13.95;8.57;;;;;;;33.24;47.10;95088.44;5040929;28;20040;-69
2022/07/04 13:08:04;;;;;;;14.93;8.30;;;;;;;34.07;42.85;95087.19;5058035;28;20457;-69
2022/07/04 13:10:32;;;;;;;8.57;7.70;;;;;;;34.65;40.09;95071.28;5059733;28;20037;-69
2022/07/04 13:12:59;;;;;;;8.48;7.25;;;;;;;35.58;39.56;95071.53;5055210;28;20414;-70
2022/07/04 13:15:27;;;;;;;9.10;6.47;;;;;;;36.40;38.73;95074.56;5056374;28;21142;-69
2022/07/04 13:17:54;;;;;;;9.23;6.15;;;;;;;37.43;36.76;95076.00;5060862;28;20517;-69
2022/07/04 13:20:21;;;;;;;7.05;6.05;;;;;;;38.43;34.09;95089.94;5041424;28;20509;-68
2022/07/04 13:22:48;;;;;;;7.25;6.55;;;;;;;39.29;34.73;95082.66;5058898;28;20480;-69
2022/07/04 13:25:16;;;;;;;7.30;6.45;;;;;;;39.46;30.51;95067.25;5057079;28;20052;-78
2022/07/04 13:27:43;;;;;;;6.60;6.00;;;;;;;39.87;30.12;95074.38;5034581;28;20040;-76
2022/07/04 13:30:11;;;;;;;7.13;6.43;;;;;;;39.93;27.68;95080.91;5058971;28;20046;-72
2022/07/04 13:32:39;;;;;;;6.22;5.53;;;;;;;40.46;29.62;95076.47;5054445;28;20514;-73
2022/07/04 13:35:06;;;;;;;8.25;5.50;;;;;;;40.41;29.96;95068.78;5038396;28;20037;-72
2022/07/04 13:37:33;;;;;;;6.20;5.38;;;;;;;41.06;27.44;95068.22;5058348;28;20050;-74
2022/07/04 13:40:01;;;;;;;10.60;5.70;;;;;;;40.81;28.09;95071.50;5057110;28;20790;-69
2022/07/04 13:45:14;;;;;;;6.97;5.85;;;;;;;40.03;28.03;95054.63;5060162;28;20053;-70
2022/07/04 13:47:41;;;;;;;6.45;5.60;;;;;;;39.99;28.44;95053.94;5057090;28;20044;-68
2022/07/04 13:50:09;;;;;;;7.60;5.28;;;;;;;40.61;27.83;95066.03;5059456;28;20493;-73
2022/07/04 13:52:36;;;;;;;5.22;4.70;;;;;;;41.36;26.30;95062.91;5058690;28;20112;-72
2022/07/04 13:55:03;;;;;;;8.70;5.20;;;;;;;41.45;24.11;95049.41;5056480;28;20052;-73
2022/07/04 13:57:32;;;;;;;7.93;5.47;;;;;;;41.66;24.97;95058.34;5040851;28;20060;-71
2022/07/04 13:59:59;;;;;;;6.97;4.93;;;;;;;41.49;24.61;95061.03;5040441;28;20037;-72
2022/07/04 14:02:26;;;;;;;6.15;5.10;;;;;;;41.72;25.29;95056.59;5040905;28;20033;-74
2022/07/04 14:04:53;;;;;;;8.05;4.60;;;;;;;41.38;25.04;95049.59;5040638;28;20283;-73
2022/07/04 14:07:20;;;;;;;5.70;5.20;;;;;;;41.26;24.55;95049.06;5037729;28;20039;-69
2022/07/04 14:09:47;;;;;;;6.53;5.32;;;;;;;41.23;26.42;95039.00;5036301;28;20036;-72
2022/07/04 14:12:16;;;;;;;11.80;5.97;;;;;;;40.84;25.83;95039.84;5037174;28;20061;-71
2022/07/04 14:14:43;;;;;;;6.97;5.22;;;;;;;40.29;26.41;95028.44;5052595;28;20037;-72
2022/07/04 14:17:11;;;;;;;7.10;5.40;;;;;;;40.14;26.56;95023.28;5058895;28;20052;-73
2022/07/04 14:19:57;;;;;;;8.88;5.05;;;;;;;40.50;26.33;95033.50;5057554;28;20082;-71
2022/07/04 14:22:24;;;;;;;6.30;5.28;;;;;;;40.74;27.07;95025.22;5056358;28;20054;-73
2022/07/04 14:24:51;;;;;;;9.10;5.28;;;;;;;40.30;27.32;95024.50;5041117;28;20072;-72
2022/07/04 14:27:19;;;;;;;6.18;5.45;;;;;;;39.66;26.84;95019.03;5055354;28;20433;-65